sensor_id;sensor_type;location;lat;lon;timestamp;pressure;altitude;pressure_sealevel;temperature;humidity
64792;BME280;51226;47.504;19.074;2023-07-13T00:01:28;99994.94;;;26.95;57.55
64792;BME280;51226;47.504;19.074;2023-07-13T00:04:32;99979.19;;;26.86;58.74
64792;BME280;51226;47.504;19.074;2023-07-13T00:07:36;99970.63;;;26.76;59.67
64792;BME280;51226;47.504;19.074;2023-07-13T00:10:40;99969.38;;;26.59;60.76
64792;BME280;51226;47.504;19.074;2023-07-13T00:13:44;99974.91;;;26.28;61.72
64792;BME280;51226;47.504;19.074;2023-07-13T00:16:47;99960.59;;;26.29;62.18
64792;BME280;51226;47.504;19.074;2023-07-13T00:19:50;99934.19;;;26.20;62.57
64792;BME280;51226;47.504;19.074;2023-07-13T00:22:53;99922.06;;;26.10;63.01
64792;BME280;51226;47.504;19.074;2023-07-13T00:25:56;99921.53;;;25.98;63.44
64792;BME280;51226;47.504;19.074;2023-07-13T00:29:00;99904.91;;;25.88;63.85
64792;BME280;51226;47.504;19.074;2023-07-13T00:32:05;99885.53;;;25.82;63.85
64792;BME280;51226;47.504;19.074;2023-07-13T00:35:09;99875.97;;;25.75;63.41
64792;BME280;51226;47.504;19.074;2023-07-13T00:38:12;99872.78;;;25.63;63.19
64792;BME280;51226;47.504;19.074;2023-07-13T00:41:15;99865.59;;;25.37;63.69
64792;BME280;51226;47.504;19.074;2023-07-13T00:44:19;99848.13;;;25.25;63.40
64792;BME280;51226;47.504;19.074;2023-07-13T00:47:23;99845.34;;;25.30;62.74
64792;BME280;51226;47.504;19.074;2023-07-13T00:50:26;99845.72;;;25.18;62.95
64792;BME280;51226;47.504;19.074;2023-07-13T00:53:31;99853.81;;;25.14;63.01
64792;BME280;51226;47.504;19.074;2023-07-13T00:56:35;99839.56;;;25.14;62.59
64792;BME280;51226;47.504;19.074;2023-07-13T00:59:42;99834.41;;;25.09;62.63
64792;BME280;51226;47.504;19.074;2023-07-13T01:02:45;99829.78;;;25.14;62.55
64792;BME280;51226;47.504;19.074;2023-07-13T01:05:52;99827.03;;;25.18;62.16
64792;BME280;51226;47.504;19.074;2023-07-13T01:08:57;99816.50;;;25.13;61.07
64792;BME280;51226;47.504;19.074;2023-07-13T01:12:03;99819.34;;;25.07;61.14
64792;BME280;51226;47.504;19.074;2023-07-13T01:15:40;99820.31;;;25.04;60.69
64792;BME280;51226;47.504;19.074;2023-07-13T01:18:45;99810.75;;;24.97;60.70
64792;BME280;51226;47.504;19.074;2023-07-13T01:21:52;99838.19;;;25.01;60.78
64792;BME280;51226;47.504;19.074;2023-07-13T01:24:56;99827.34;;;25.07;60.52
64792;BME280;51226;47.504;19.074;2023-07-13T01:27:58;99810.75;;;25.25;60.02
64792;BME280;51226;47.504;19.074;2023-07-13T01:31:02;99838.03;;;25.07;60.60
64792;BME280;51226;47.504;19.074;2023-07-13T01:34:05;99831.13;;;25.00;61.06
64792;BME280;51226;47.504;19.074;2023-07-13T01:37:09;99813.38;;;24.99;61.30
64792;BME280;51226;47.504;19.074;2023-07-13T01:40:12;99807.12;;;25.00;61.54
64792;BME280;51226;47.504;19.074;2023-07-13T01:43:15;99808.66;;;25.07;61.31
64792;BME280;51226;47.504;19.074;2023-07-13T01:46:19;99804.16;;;25.09;61.23
64792;BME280;51226;47.504;19.074;2023-07-13T01:49:26;99799.06;;;25.01;61.36
64792;BME280;51226;47.504;19.074;2023-07-13T01:52:28;99792.97;;;24.98;61.40
64792;BME280;51226;47.504;19.074;2023-07-13T01:55:34;99801.25;;;25.17;60.90
64792;BME280;51226;47.504;19.074;2023-07-13T01:58:37;99797.81;;;25.13;61.01
64792;BME280;51226;47.504;19.074;2023-07-13T02:01:40;99791.03;;;25.03;61.53
64792;BME280;51226;47.504;19.074;2023-07-13T02:04:43;99776.50;;;25.11;61.33
64792;BME280;51226;47.504;19.074;2023-07-13T02:07:47;99774.06;;;25.04;61.43
64792;BME280;51226;47.504;19.074;2023-07-13T02:10:50;99773.53;;;24.92;61.83
64792;BME280;51226;47.504;19.074;2023-07-13T02:13:53;99772.78;;;24.87;62.03
64792;BME280;51226;47.504;19.074;2023-07-13T02:16:55;99777.22;;;24.88;61.94
64792;BME280;51226;47.504;19.074;2023-07-13T02:19:58;99783.88;;;25.03;61.43
64792;BME280;51226;47.504;19.074;2023-07-13T02:23:01;99793.78;;;25.00;61.62
64792;BME280;51226;47.504;19.074;2023-07-13T02:26:04;99780.56;;;24.95;61.97
64792;BME280;51226;47.504;19.074;2023-07-13T02:29:07;99794.25;;;24.84;62.55
64792;BME280;51226;47.504;19.074;2023-07-13T02:32:10;99786.44;;;24.78;62.87
64792;BME280;51226;47.504;19.074;2023-07-13T02:35:13;99784.53;;;24.82;63.16
64792;BME280;51226;47.504;19.074;2023-07-13T02:38:16;99796.41;;;25.01;62.87
64792;BME280;51226;47.504;19.074;2023-07-13T02:41:19;99802.94;;;24.91;63.19
64792;BME280;51226;47.504;19.074;2023-07-13T02:44:21;99797.22;;;24.73;63.72
64792;BME280;51226;47.504;19.074;2023-07-13T02:47:24;99793.06;;;24.65;63.96
64792;BME280;51226;47.504;19.074;2023-07-13T02:50:28;99790.63;;;24.55;64.44
64792;BME280;51226;47.504;19.074;2023-07-13T02:53:31;99810.28;;;24.51;64.92
64792;BME280;51226;47.504;19.074;2023-07-13T02:56:34;99803.72;;;24.65;64.91
64792;BME280;51226;47.504;19.074;2023-07-13T02:59:36;99812.03;;;24.52;65.83
64792;BME280;51226;47.504;19.074;2023-07-13T03:02:40;99814.44;;;24.63;66.03
64792;BME280;51226;47.504;19.074;2023-07-13T03:05:44;99814.09;;;24.42;67.24
64792;BME280;51226;47.504;19.074;2023-07-13T03:08:48;99817.91;;;24.32;68.06
64792;BME280;51226;47.504;19.074;2023-07-13T03:11:55;99835.78;;;24.29;68.49
64792;BME280;51226;47.504;19.074;2023-07-13T03:14:58;99841.03;;;24.32;68.65
64792;BME280;51226;47.504;19.074;2023-07-13T03:18:02;99848.56;;;24.49;68.21
64792;BME280;51226;47.504;19.074;2023-07-13T03:21:05;99846.38;;;24.32;69.15
64792;BME280;51226;47.504;19.074;2023-07-13T03:24:09;99851.03;;;24.23;69.63
64792;BME280;51226;47.504;19.074;2023-07-13T03:27:12;99849.53;;;24.46;68.84
64792;BME280;51226;47.504;19.074;2023-07-13T03:30:17;99836.13;;;24.49;68.81
64792;BME280;51226;47.504;19.074;2023-07-13T03:33:20;99841.75;;;24.38;69.06
64792;BME280;51226;47.504;19.074;2023-07-13T03:36:25;99843.50;;;24.39;69.15
64792;BME280;51226;47.504;19.074;2023-07-13T03:39:29;99820.81;;;24.25;69.62
64792;BME280;51226;47.504;19.074;2023-07-13T03:42:32;99821.75;;;24.22;69.69
64792;BME280;51226;47.504;19.074;2023-07-13T03:45:37;99826.09;;;24.26;69.55
64792;BME280;51226;47.504;19.074;2023-07-13T03:48:43;99844.56;;;24.32;69.37
64792;BME280;51226;47.504;19.074;2023-07-13T03:51:47;99855.94;;;24.39;69.09
64792;BME280;51226;47.504;19.074;2023-07-13T03:54:52;99851.44;;;24.42;68.91
64792;BME280;51226;47.504;19.074;2023-07-13T03:58:23;99852.88;;;24.56;68.39
64792;BME280;51226;47.504;19.074;2023-07-13T04:01:24;99839.66;;;24.83;67.09
64792;BME280;51226;47.504;19.074;2023-07-13T04:04:28;99843.75;;;24.94;66.24
64792;BME280;51226;47.504;19.074;2023-07-13T04:07:30;99844.12;;;24.81;66.69
64792;BME280;51226;47.504;19.074;2023-07-13T04:10:35;99853.69;;;24.89;65.95
64792;BME280;51226;47.504;19.074;2023-07-13T04:13:37;99878.25;;;24.99;65.47
64792;BME280;51226;47.504;19.074;2023-07-13T04:16:40;99903.53;;;25.17;64.01
64792;BME280;51226;47.504;19.074;2023-07-13T04:19:43;99918.53;;;24.91;64.69
64792;BME280;51226;47.504;19.074;2023-07-13T04:22:46;99921.28;;;24.88;64.44
64792;BME280;51226;47.504;19.074;2023-07-13T04:25:51;99933.06;;;24.81;64.57
64792;BME280;51226;47.504;19.074;2023-07-13T04:28:58;99923.22;;;24.83;64.48
64792;BME280;51226;47.504;19.074;2023-07-13T04:32:00;99918.78;;;24.82;64.23
64792;BME280;51226;47.504;19.074;2023-07-13T04:35:04;99929.31;;;24.87;63.59
64792;BME280;51226;47.504;19.074;2023-07-13T04:38:07;99935.69;;;24.83;63.67
64792;BME280;51226;47.504;19.074;2023-07-13T04:41:10;99941.69;;;24.91;62.82
64792;BME280;51226;47.504;19.074;2023-07-13T04:44:13;99943.44;;;24.90;62.90
64792;BME280;51226;47.504;19.074;2023-07-13T04:47:16;99952.81;;;25.05;62.29
64792;BME280;51226;47.504;19.074;2023-07-13T04:50:19;99953.97;;;24.96;63.16
64792;BME280;51226;47.504;19.074;2023-07-13T04:53:27;99962.16;;;24.89;63.32
64792;BME280;51226;47.504;19.074;2023-07-13T04:56:30;99968.69;;;24.78;63.67
64792;BME280;51226;47.504;19.074;2023-07-13T04:59:34;99980.31;;;24.76;64.04
64792;BME280;51226;47.504;19.074;2023-07-13T05:02:38;99998.16;;;24.72;65.47
64792;BME280;51226;47.504;19.074;2023-07-13T05:05:41;100008.84;;;24.72;66.76
64792;BME280;51226;47.504;19.074;2023-07-13T05:08:43;100031.06;;;24.73;67.94
64792;BME280;51226;47.504;19.074;2023-07-13T05:11:46;100055.22;;;24.67;68.58
64792;BME280;51226;47.504;19.074;2023-07-13T05:14:49;100095.31;;;24.64;68.39
64792;BME280;51226;47.504;19.074;2023-07-13T05:17:52;100137.69;;;24.76;67.43
64792;BME280;51226;47.504;19.074;2023-07-13T05:21:03;100145.37;;;24.88;66.44
64792;BME280;51226;47.504;19.074;2023-07-13T05:24:07;100143.47;;;24.57;68.71
64792;BME280;51226;47.504;19.074;2023-07-13T05:27:24;100145.69;;;24.37;70.34
64792;BME280;51226;47.504;19.074;2023-07-13T05:30:28;100140.94;;;24.11;71.95
64792;BME280;51226;47.504;19.074;2023-07-13T05:33:30;100143.91;;;23.95;72.90
64792;BME280;51226;47.504;19.074;2023-07-13T05:36:33;100153.88;;;23.85;71.41
64792;BME280;51226;47.504;19.074;2023-07-13T05:39:36;100156.63;;;23.82;72.24
64792;BME280;51226;47.504;19.074;2023-07-13T05:42:39;100148.72;;;23.76;72.21
64792;BME280;51226;47.504;19.074;2023-07-13T05:45:42;100121.81;;;23.45;74.12
64792;BME280;51226;47.504;19.074;2023-07-13T05:48:45;100131.69;;;23.38;74.21
64792;BME280;51226;47.504;19.074;2023-07-13T05:51:48;100130.12;;;23.28;74.06
64792;BME280;51226;47.504;19.074;2023-07-13T05:54:51;100127.69;;;23.16;73.85
64792;BME280;51226;47.504;19.074;2023-07-13T05:57:54;100115.63;;;22.93;76.27
64792;BME280;51226;47.504;19.074;2023-07-13T06:01:16;100106.75;;;22.94;75.33
64792;BME280;51226;47.504;19.074;2023-07-13T06:04:19;100099.62;;;22.96;75.05
64792;BME280;51226;47.504;19.074;2023-07-13T06:07:22;100106.19;;;22.75;76.17
64792;BME280;51226;47.504;19.074;2023-07-13T06:10:25;100092.13;;;22.67;75.28
64792;BME280;51226;47.504;19.074;2023-07-13T06:13:28;100059.19;;;22.77;75.40
64792;BME280;51226;47.504;19.074;2023-07-13T06:16:31;100015.28;;;22.53;77.66
64792;BME280;51226;47.504;19.074;2023-07-13T06:19:35;99924.22;;;22.42;78.56
64792;BME280;51226;47.504;19.074;2023-07-13T06:22:37;99706.09;;;22.52;76.77
64792;BME280;51226;47.504;19.074;2023-07-13T06:25:40;99749.47;;;22.54;76.57
64792;BME280;51226;47.504;19.074;2023-07-13T06:28:43;99849.06;;;22.35;77.93
64792;BME280;51226;47.504;19.074;2023-07-13T06:31:47;99787.75;;;22.46;77.57
64792;BME280;51226;47.504;19.074;2023-07-13T06:34:50;99740.03;;;22.39;77.60
64792;BME280;51226;47.504;19.074;2023-07-13T06:37:54;99749.63;;;22.45;77.51
64792;BME280;51226;47.504;19.074;2023-07-13T06:40:57;99764.81;;;22.40;76.96
64792;BME280;51226;47.504;19.074;2023-07-13T06:44:00;99786.81;;;22.47;76.84
64792;BME280;51226;47.504;19.074;2023-07-13T06:47:03;99784.06;;;22.51;76.81
64792;BME280;51226;47.504;19.074;2023-07-13T06:50:07;99785.59;;;22.63;76.11
64792;BME280;51226;47.504;19.074;2023-07-13T06:53:10;99789.66;;;22.81;75.68
64792;BME280;51226;47.504;19.074;2023-07-13T06:56:14;99781.31;;;22.97;74.47
64792;BME280;51226;47.504;19.074;2023-07-13T06:59:17;99777.47;;;23.11;73.81
64792;BME280;51226;47.504;19.074;2023-07-13T07:02:19;99761.22;;;23.24;74.48
64792;BME280;51226;47.504;19.074;2023-07-13T07:05:23;99778.47;;;23.43;73.15
64792;BME280;51226;47.504;19.074;2023-07-13T07:08:26;99781.31;;;23.72;71.60
64792;BME280;51226;47.504;19.074;2023-07-13T07:11:29;99781.44;;;24.03;70.22
64792;BME280;51226;47.504;19.074;2023-07-13T07:14:32;99775.97;;;24.39;69.94
64792;BME280;51226;47.504;19.074;2023-07-13T07:17:37;99792.81;;;24.72;68.92
64792;BME280;51226;47.504;19.074;2023-07-13T07:20:40;99884.75;;;25.20;66.67
64792;BME280;51226;47.504;19.074;2023-07-13T07:23:43;99935.91;;;25.66;65.36
64792;BME280;51226;47.504;19.074;2023-07-13T07:26:46;99922.84;;;26.13;61.93
64792;BME280;51226;47.504;19.074;2023-07-13T07:29:52;99936.34;;;26.35;60.64
64792;BME280;51226;47.504;19.074;2023-07-13T07:33:15;99948.91;;;26.33;61.04
64792;BME280;51226;47.504;19.074;2023-07-13T07:36:18;99961.06;;;26.42;58.38
64792;BME280;51226;47.504;19.074;2023-07-13T07:39:24;99976.88;;;26.50;60.48
64792;BME280;51226;47.504;19.074;2023-07-13T07:42:27;99986.91;;;26.70;60.48
64792;BME280;51226;47.504;19.074;2023-07-13T07:45:30;99977.00;;;26.97;58.08
64792;BME280;51226;47.504;19.074;2023-07-13T07:48:33;99996.56;;;26.99;58.96
64792;BME280;51226;47.504;19.074;2023-07-13T07:51:36;99989.81;;;27.38;56.97
64792;BME280;51226;47.504;19.074;2023-07-13T07:54:39;99991.16;;;27.49;57.65
64792;BME280;51226;47.504;19.074;2023-07-13T07:57:45;99986.78;;;27.70;56.90
64792;BME280;51226;47.504;19.074;2023-07-13T08:00:51;99981.78;;;28.07;53.19
64792;BME280;51226;47.504;19.074;2023-07-13T08:03:57;99997.03;;;28.27;52.75
64792;BME280;51226;47.504;19.074;2023-07-13T08:07:02;100004.50;;;28.63;52.03
64792;BME280;51226;47.504;19.074;2023-07-13T08:10:07;99991.81;;;29.08;50.16
64792;BME280;51226;47.504;19.074;2023-07-13T08:13:10;99989.78;;;29.52;48.86
64792;BME280;51226;47.504;19.074;2023-07-13T08:16:14;99981.72;;;29.71;48.65
64792;BME280;51226;47.504;19.074;2023-07-13T08:19:17;99978.66;;;29.98;47.81
64792;BME280;51226;47.504;19.074;2023-07-13T08:22:20;99985.87;;;30.52;46.32
64792;BME280;51226;47.504;19.074;2023-07-13T08:25:22;99986.22;;;30.98;45.02
64792;BME280;51226;47.504;19.074;2023-07-13T08:28:26;99989.56;;;31.52;45.04
64792;BME280;51226;47.504;19.074;2023-07-13T08:31:28;99995.94;;;32.15;43.45
64792;BME280;51226;47.504;19.074;2023-07-13T08:34:32;99994.81;;;32.65;41.67
64792;BME280;51226;47.504;19.074;2023-07-13T08:37:34;99986.78;;;33.09;40.95
64792;BME280;51226;47.504;19.074;2023-07-13T08:40:39;99981.41;;;33.23;39.81
64792;BME280;51226;47.504;19.074;2023-07-13T08:43:46;99988.41;;;33.54;39.63
64792;BME280;51226;47.504;19.074;2023-07-13T08:46:53;99975.19;;;33.78;39.28
64792;BME280;51226;47.504;19.074;2023-07-13T08:49:57;99992.19;;;34.08;39.48
64792;BME280;51226;47.504;19.074;2023-07-13T08:53:02;99997.03;;;34.57;37.45
64792;BME280;51226;47.504;19.074;2023-07-13T08:56:11;99985.84;;;35.02;35.97
64792;BME280;51226;47.504;19.074;2023-07-13T08:59:26;99990.47;;;35.00;35.82
64792;BME280;51226;47.504;19.074;2023-07-13T09:05:42;99980.31;;;36.16;34.40
64792;BME280;51226;47.504;19.074;2023-07-13T09:08:59;99973.81;;;36.65;33.33
64792;BME280;51226;47.504;19.074;2023-07-13T09:15:32;99976.66;;;36.99;32.01
64792;BME280;51226;47.504;19.074;2023-07-13T09:19:00;99976.84;;;36.38;32.98
64792;BME280;51226;47.504;19.074;2023-07-13T09:22:10;99983.38;;;35.87;33.64
64792;BME280;51226;47.504;19.074;2023-07-13T09:25:34;99979.13;;;35.83;34.75
64792;BME280;51226;47.504;19.074;2023-07-13T09:28:40;99976.69;;;36.64;32.84
64792;BME280;51226;47.504;19.074;2023-07-13T09:31:49;99970.37;;;37.21;31.34
64792;BME280;51226;47.504;19.074;2023-07-13T09:34:55;99978.41;;;37.45;31.33
64792;BME280;51226;47.504;19.074;2023-07-13T09:38:06;99988.44;;;37.22;31.58
64792;BME280;51226;47.504;19.074;2023-07-13T09:41:23;99998.56;;;36.38;32.70
64792;BME280;51226;47.504;19.074;2023-07-13T09:44:37;99992.75;;;35.57;33.79
64792;BME280;51226;47.504;19.074;2023-07-13T09:47:40;99999.63;;;34.99;34.88
64792;BME280;51226;47.504;19.074;2023-07-13T09:50:44;100005.25;;;35.34;34.57
64792;BME280;51226;47.504;19.074;2023-07-13T09:53:48;99996.34;;;35.95;33.80
64792;BME280;51226;47.504;19.074;2023-07-13T09:56:59;100010.37;;;36.97;32.11
64792;BME280;51226;47.504;19.074;2023-07-13T10:00:02;100013.03;;;37.55;31.40
64792;BME280;51226;47.504;19.074;2023-07-13T10:03:18;100005.88;;;38.52;29.98
64792;BME280;51226;47.504;19.074;2023-07-13T10:06:22;99994.97;;;39.06;29.10
64792;BME280;51226;47.504;19.074;2023-07-13T10:09:24;100000.75;;;39.43;28.23
64792;BME280;51226;47.504;19.074;2023-07-13T10:12:29;100003.50;;;39.94;27.42
64792;BME280;51226;47.504;19.074;2023-07-13T10:15:33;100006.87;;;40.07;27.04
64792;BME280;51226;47.504;19.074;2023-07-13T10:18:44;99991.88;;;39.51;27.41
64792;BME280;51226;47.504;19.074;2023-07-13T10:22:23;99995.13;;;39.35;27.77
64792;BME280;51226;47.504;19.074;2023-07-13T10:25:31;100000.63;;;39.86;27.27
64792;BME280;51226;47.504;19.074;2023-07-13T10:28:38;100010.47;;;40.17;26.90
64792;BME280;51226;47.504;19.074;2023-07-13T10:31:41;100011.34;;;40.37;26.58
64792;BME280;51226;47.504;19.074;2023-07-13T10:34:46;100012.78;;;40.71;25.71
64792;BME280;51226;47.504;19.074;2023-07-13T10:37:55;100013.78;;;40.99;25.41
64792;BME280;51226;47.504;19.074;2023-07-13T10:41:03;100026.75;;;40.97;24.90
64792;BME280;51226;47.504;19.074;2023-07-13T10:44:18;100024.84;;;41.07;24.90
64792;BME280;51226;47.504;19.074;2023-07-13T10:47:24;100004.91;;;41.25;24.84
64792;BME280;51226;47.504;19.074;2023-07-13T10:50:29;100010.16;;;41.08;24.89
64792;BME280;51226;47.504;19.074;2023-07-13T10:53:36;100023.69;;;41.10;24.64
64792;BME280;51226;47.504;19.074;2023-07-13T10:56:40;100009.00;;;41.11;24.10
64792;BME280;51226;47.504;19.074;2023-07-13T10:59:48;100014.50;;;41.01;24.86
64792;BME280;51226;47.504;19.074;2023-07-13T11:02:59;100010.44;;;41.15;24.24
64792;BME280;51226;47.504;19.074;2023-07-13T11:06:17;100013.03;;;41.17;24.17
64792;BME280;51226;47.504;19.074;2023-07-13T11:09:38;99996.09;;;40.93;24.01
64792;BME280;51226;47.504;19.074;2023-07-13T11:15:49;100000.72;;;40.83;24.47
64792;BME280;51226;47.504;19.074;2023-07-13T11:19:24;100008.62;;;40.77;24.58
64792;BME280;51226;47.504;19.074;2023-07-13T11:25:45;99998.81;;;39.55;25.68
64792;BME280;51226;47.504;19.074;2023-07-13T11:28:50;99995.06;;;39.04;26.57
64792;BME280;51226;47.504;19.074;2023-07-13T11:31:55;99990.78;;;39.33;25.85
64792;BME280;51226;47.504;19.074;2023-07-13T11:34:58;99982.38;;;39.45;25.95
64792;BME280;51226;47.504;19.074;2023-07-13T11:38:02;99986.78;;;39.68;25.69
64792;BME280;51226;47.504;19.074;2023-07-13T11:41:30;99988.56;;;39.88;25.40
64792;BME280;51226;47.504;19.074;2023-07-13T11:44:34;99974.59;;;39.81;25.55
64792;BME280;51226;47.504;19.074;2023-07-13T11:47:40;99979.38;;;39.49;25.62
64792;BME280;51226;47.504;19.074;2023-07-13T11:50:50;99977.56;;;39.59;25.49
64792;BME280;51226;47.504;19.074;2023-07-13T11:53:55;99979.38;;;39.18;25.49
64792;BME280;51226;47.504;19.074;2023-07-13T12:00:25;99989.72;;;38.72;26.21
64792;BME280;51226;47.504;19.074;2023-07-13T12:03:30;99982.16;;;38.43;26.50
64792;BME280;51226;47.504;19.074;2023-07-13T12:06:35;99974.62;;;38.68;27.04
64792;BME280;51226;47.504;19.074;2023-07-13T12:09:42;99983.06;;;38.86;26.08
64792;BME280;51226;47.504;19.074;2023-07-13T12:12:48;99974.53;;;39.00;25.87
64792;BME280;51226;47.504;19.074;2023-07-13T12:15:51;99969.84;;;38.81;26.18
64792;BME280;51226;47.504;19.074;2023-07-13T12:18:57;99958.50;;;38.23;26.33
64792;BME280;51226;47.504;19.074;2023-07-13T12:22:00;99963.59;;;38.37;26.19
64792;BME280;51226;47.504;19.074;2023-07-13T12:25:03;99971.88;;;38.47;26.11
64792;BME280;51226;47.504;19.074;2023-07-13T12:31:42;99974.16;;;37.98;27.08
64792;BME280;51226;47.504;19.074;2023-07-13T12:35:12;99959.50;;;37.67;27.42
64792;BME280;51226;47.504;19.074;2023-07-13T12:38:16;99964.69;;;37.70;27.56
64792;BME280;51226;47.504;19.074;2023-07-13T12:41:20;99955.87;;;37.77;27.59
64792;BME280;51226;47.504;19.074;2023-07-13T12:44:28;99957.59;;;37.78;27.57
64792;BME280;51226;47.504;19.074;2023-07-13T12:47:39;99954.75;;;37.57;27.64
64792;BME280;51226;47.504;19.074;2023-07-13T12:50:47;99946.03;;;37.42;27.82
64792;BME280;51226;47.504;19.074;2023-07-13T12:53:57;99968.25;;;36.91;28.23
64792;BME280;51226;47.504;19.074;2023-07-13T12:57:01;99962.56;;;37.17;28.33
64792;BME280;51226;47.504;19.074;2023-07-13T13:00:36;99956.66;;;37.23;28.35
64792;BME280;51226;47.504;19.074;2023-07-13T13:03:46;99946.41;;;37.26;27.98
64792;BME280;51226;47.504;19.074;2023-07-13T13:07:01;99942.06;;;37.24;27.83
64792;BME280;51226;47.504;19.074;2023-07-13T13:10:11;99944.94;;;36.64;28.29
64792;BME280;51226;47.504;19.074;2023-07-13T13:13:15;99966.50;;;36.19;28.86
64792;BME280;51226;47.504;19.074;2023-07-13T13:16:31;99959.19;;;36.20;29.34
64792;BME280;51226;47.504;19.074;2023-07-13T13:19:35;99946.69;;;36.30;29.23
64792;BME280;51226;47.504;19.074;2023-07-13T13:22:38;99941.78;;;36.46;29.21
64792;BME280;51226;47.504;19.074;2023-07-13T13:25:41;99933.09;;;36.30;28.56
64792;BME280;51226;47.504;19.074;2023-07-13T13:28:44;99930.91;;;36.11;29.23
64792;BME280;51226;47.504;19.074;2023-07-13T13:31:48;99931.84;;;36.23;29.08
64792;BME280;51226;47.504;19.074;2023-07-13T13:34:51;99938.81;;;36.14;29.11
64792;BME280;51226;47.504;19.074;2023-07-13T13:37:54;99939.75;;;36.02;29.63
64792;BME280;51226;47.504;19.074;2023-07-13T13:40:57;99937.97;;;35.89;29.54
64792;BME280;51226;47.504;19.074;2023-07-13T13:44:00;99930.91;;;35.87;30.23
64792;BME280;51226;47.504;19.074;2023-07-13T13:47:03;99935.06;;;35.79;29.78
64792;BME280;51226;47.504;19.074;2023-07-13T13:50:17;99927.03;;;35.28;30.40
64792;BME280;51226;47.504;19.074;2023-07-13T13:53:20;99928.16;;;35.25;30.76
64792;BME280;51226;47.504;19.074;2023-07-13T13:56:23;99934.66;;;35.23;31.24
64792;BME280;51226;47.504;19.074;2023-07-13T13:59:26;99924.87;;;35.20;30.93
64792;BME280;51226;47.504;19.074;2023-07-13T14:02:30;99923.81;;;35.23;31.22
64792;BME280;51226;47.504;19.074;2023-07-13T14:05:34;99931.94;;;35.10;31.35
64792;BME280;51226;47.504;19.074;2023-07-13T14:08:38;99932.37;;;35.04;30.92
64792;BME280;51226;47.504;19.074;2023-07-13T14:11:42;99938.53;;;34.67;31.45
64792;BME280;51226;47.504;19.074;2023-07-13T14:14:45;99938.47;;;34.29;32.10
64792;BME280;51226;47.504;19.074;2023-07-13T14:17:48;99934.22;;;33.97;32.69
64792;BME280;51226;47.504;19.074;2023-07-13T14:20:54;99941.22;;;33.87;32.96
64792;BME280;51226;47.504;19.074;2023-07-13T14:23:57;99931.16;;;33.48;33.45
64792;BME280;51226;47.504;19.074;2023-07-13T14:27:00;99936.69;;;33.17;34.16
64792;BME280;51226;47.504;19.074;2023-07-13T14:30:12;99943.50;;;32.94;35.13
64792;BME280;51226;47.504;19.074;2023-07-13T14:33:15;99941.50;;;32.83;35.56
64792;BME280;51226;47.504;19.074;2023-07-13T14:36:28;99947.19;;;32.79;35.37
64792;BME280;51226;47.504;19.074;2023-07-13T14:39:32;99944.19;;;32.83;35.26
64792;BME280;51226;47.504;19.074;2023-07-13T14:42:35;99964.72;;;32.72;35.78
64792;BME280;51226;47.504;19.074;2023-07-13T14:45:41;99968.88;;;32.63;35.84
64792;BME280;51226;47.504;19.074;2023-07-13T14:48:44;99965.69;;;32.40;36.53
64792;BME280;51226;47.504;19.074;2023-07-13T14:51:47;99966.94;;;32.35;36.59
64792;BME280;51226;47.504;19.074;2023-07-13T14:54:51;99980.69;;;32.14;36.98
64792;BME280;51226;47.504;19.074;2023-07-13T14:57:54;99991.88;;;32.08;37.22
64792;BME280;51226;47.504;19.074;2023-07-13T15:00:57;99989.94;;;32.10;37.19
64792;BME280;51226;47.504;19.074;2023-07-13T15:04:01;99984.91;;;31.88;37.45
64792;BME280;51226;47.504;19.074;2023-07-13T15:07:05;99974.38;;;31.83;36.91
64792;BME280;51226;47.504;19.074;2023-07-13T15:13:21;99971.94;;;31.63;37.15
64792;BME280;51226;47.504;19.074;2023-07-13T15:16:26;99985.69;;;31.25;37.53
64792;BME280;51226;47.504;19.074;2023-07-13T15:19:30;99996.41;;;31.09;37.53
64792;BME280;51226;47.504;19.074;2023-07-13T15:22:34;99997.69;;;30.84;38.39
64792;BME280;51226;47.504;19.074;2023-07-13T15:25:37;99995.38;;;30.76;38.77
64792;BME280;51226;47.504;19.074;2023-07-13T15:28:41;99994.03;;;30.85;38.78
64792;BME280;51226;47.504;19.074;2023-07-13T15:31:46;99991.44;;;30.66;39.45
64792;BME280;51226;47.504;19.074;2023-07-13T15:34:49;99994.50;;;30.58;39.13
64792;BME280;51226;47.504;19.074;2023-07-13T15:37:53;99992.13;;;30.52;39.22
64792;BME280;51226;47.504;19.074;2023-07-13T15:40:57;99989.94;;;30.43;39.21
64792;BME280;51226;47.504;19.074;2023-07-13T15:44:01;99984.25;;;30.30;39.59
64792;BME280;51226;47.504;19.074;2023-07-13T15:47:14;99971.50;;;30.34;39.66
64792;BME280;51226;47.504;19.074;2023-07-13T15:50:20;99975.69;;;30.41;39.12
64792;BME280;51226;47.504;19.074;2023-07-13T15:53:28;99968.88;;;30.15;39.91
64792;BME280;51226;47.504;19.074;2023-07-13T15:56:35;99952.19;;;30.08;40.44
64792;BME280;51226;47.504;19.074;2023-07-13T15:59:40;99956.84;;;30.04;40.62
64792;BME280;51226;47.504;19.074;2023-07-13T16:02:43;99972.19;;;30.02;40.40
64792;BME280;51226;47.504;19.074;2023-07-13T16:05:46;99980.28;;;30.02;40.42
64792;BME280;51226;47.504;19.074;2023-07-13T16:08:51;99988.34;;;30.02;40.33
64792;BME280;51226;47.504;19.074;2023-07-13T16:11:55;99991.94;;;29.84;40.80
64792;BME280;51226;47.504;19.074;2023-07-13T16:15:00;100003.25;;;29.90;40.96
64792;BME280;51226;47.504;19.074;2023-07-13T16:18:07;100009.44;;;29.92;40.90
64792;BME280;51226;47.504;19.074;2023-07-13T16:21:13;100015.00;;;29.88;41.17
64792;BME280;51226;47.504;19.074;2023-07-13T16:24:21;100024.75;;;30.09;40.05
64792;BME280;51226;47.504;19.074;2023-07-13T16:27:24;100019.00;;;29.98;39.89
64792;BME280;51226;47.504;19.074;2023-07-13T16:30:29;100015.56;;;29.77;40.24